Time;durP1;ratioP1;P1;durP2;ratioP2;P2;SDS_P1;SDS_P2;PMS_P1;PMS_P2;Temp;Humidity;BMP_temperature;BMP_pressure;BME280_temperature;BME280_humidity;BME280_pressure;Samples;Min_cycle;Max_cycle;Signal;HPM_P1;HPM_P2
2021/09/26 00:01:25;;;;;;;10.87;9.80;;;16.50;99.90;;;;;;6248256;28;20489;-65
2021/09/26 00:04:28;;;;;;;11.20;10.17;;;16.40;99.90;;;;;;6248063;28;20474;-64
2021/09/26 00:07:31;;;;;;;11.23;10.20;;;16.40;99.90;;;;;;6247817;28;20487;-64
2021/09/26 00:10:36;;;;;;;10.37;9.50;;;16.40;99.90;;;;;;6248423;28;20990;-64
2021/09/26 00:13:41;;;;;;;11.83;10.73;;;16.40;99.90;;;;;;6247907;28;20486;-64
2021/09/26 00:16:45;;;;;;;12.03;10.83;;;16.40;99.90;;;;;;6248886;28;20461;-64
2021/09/26 00:19:48;;;;;;;11.03;10.10;;;16.30;99.90;;;;;;6249129;28;20477;-64
2021/09/26 00:22:51;;;;;;;10.73;9.63;;;16.30;99.90;;;;;;6238314;28;20541;-63
2021/09/26 00:25:56;;;;;;;11.73;10.73;;;16.20;99.90;;;;;;6225941;28;20480;-64
2021/09/26 00:28:59;;;;;;;11.60;10.63;;;16.20;99.90;;;;;;6229181;28;20479;-63
2021/09/26 00:32:03;;;;;;;11.13;10.07;;;16.20;99.90;;;;;;6228783;28;20494;-63
2021/09/26 00:35:06;;;;;;;11.70;10.57;;;16.20;99.90;;;;;;6228656;28;20764;-64
2021/09/26 00:38:10;;;;;;;11.80;10.70;;;16.20;99.90;;;;;;6228892;28;20942;-64
2021/09/26 00:41:15;;;;;;;11.07;10.17;;;16.20;99.90;;;;;;6228526;28;20480;-64
2021/09/26 00:44:18;;;;;;;10.70;9.80;;;16.20;99.90;;;;;;6228788;28;20451;-63
2021/09/26 00:47:21;;;;;;;12.87;11.57;;;16.20;99.90;;;;;;6229378;28;20515;-63
2021/09/26 00:50:25;;;;;;;10.70;9.80;;;16.20;99.90;;;;;;6229546;28;20530;-63
2021/09/26 00:53:28;;;;;;;11.90;10.90;;;16.20;99.90;;;;;;6249521;28;20561;-62
2021/09/26 00:56:33;;;;;;;12.03;10.83;;;16.20;99.90;;;;;;6251596;28;20482;-63
2021/09/26 00:59:36;;;;;;;10.80;9.60;;;16.10;99.90;;;;;;6251888;28;20475;-62
2021/09/26 01:02:39;;;;;;;11.67;10.43;;;16.00;99.90;;;;;;6251860;28;20907;-62
2021/09/26 01:05:44;;;;;;;11.57;10.53;;;15.80;99.90;;;;;;6251612;28;20621;-62
2021/09/26 01:08:59;;;;;;;10.73;9.63;;;15.70;99.90;;;;;;6252254;28;20475;-62
2021/09/26 01:12:13;;;;;;;11.50;10.50;;;15.80;99.90;;;;;;6251845;28;20614;-62
2021/09/26 01:15:23;;;;;;;11.27;10.27;;;15.80;99.90;;;;;;6253029;28;20471;-62
2021/09/26 01:18:37;;;;;;;10.73;9.73;;;15.70;99.90;;;;;;6239668;28;20484;-62
2021/09/26 01:21:47;;;;;;;11.43;10.43;;;15.70;99.90;;;;;;6224898;28;20479;-62
2021/09/26 01:25:20;;;;;;;12.17;10.90;;;15.70;99.90;;;;;;6226900;28;20487;-62
2021/09/26 01:28:45;;;;;;;14.00;9.67;;;15.60;99.90;;;;;;6227379;28;20983;-62
2021/09/26 01:31:52;;;;;;;12.23;10.67;;;15.60;99.90;;;;;;6225029;28;20502;-62
2021/09/26 01:34:58;;;;;;;11.47;10.47;;;15.50;99.90;;;;;;6223516;28;20492;-63
2021/09/26 01:38:07;;;;;;;11.67;10.67;;;15.60;99.90;;;;;;6226354;28;20539;-62
2021/09/26 01:41:16;;;;;;;10.30;9.40;;;15.40;99.90;;;;;;6230099;28;20780;-62
2021/09/26 01:44:26;;;;;;;12.00;10.93;;;15.40;99.90;;;;;;6232759;28;20437;-62
2021/09/26 01:47:41;;;;;;;11.43;10.33;;;15.40;99.90;;;;;;6227626;28;20479;-62
2021/09/26 01:50:47;;;;;;;11.63;10.53;;;15.40;99.90;;;;;;6227419;28;20480;-62
2021/09/26 01:53:51;;;;;;;12.23;11.00;;;15.40;99.90;;;;;;6227138;28;20472;-62
2021/09/26 01:56:58;;;;;;;11.67;10.57;;;15.40;99.90;;;;;;6227410;28;20476;-62
2021/09/26 02:00:04;;;;;;;12.17;11.10;;;15.30;99.90;;;;;;6227619;28;20491;-62
2021/09/26 02:03:09;;;;;;;13.53;12.53;;;15.20;99.90;;;;;;6227172;28;20483;-62
2021/09/26 02:06:13;;;;;;;12.63;11.50;;;15.10;99.90;;;;;;6227261;28;20492;-63
2021/09/26 02:09:17;;;;;;;12.10;11.00;;;15.00;99.90;;;;;;6226854;28;20491;-62
2021/09/26 02:12:22;;;;;;;11.10;10.27;;;15.00;99.90;;;;;;6226749;28;20959;-62
2021/09/26 02:15:28;;;;;;;12.07;11.00;;;15.00;99.90;;;;;;6227068;28;20476;-62
2021/09/26 02:18:33;;;;;;;11.23;10.30;;;15.00;99.90;;;;;;6228995;28;20960;-62
2021/09/26 02:21:37;;;;;;;11.23;10.13;;;15.00;99.90;;;;;;6230210;28;20815;-62
2021/09/26 02:24:42;;;;;;;11.50;10.30;;;15.10;99.90;;;;;;6228809;28;21007;-63
2021/09/26 02:27:46;;;;;;;11.60;10.50;;;15.10;99.90;;;;;;6226210;28;20845;-63
2021/09/26 02:30:49;;;;;;;10.37;9.47;;;15.00;99.90;;;;;;6227101;28;20476;-62
2021/09/26 02:33:54;;;;;;;12.33;11.23;;;15.00;99.90;;;;;;6226829;28;20476;-63
2021/09/26 02:36:58;;;;;;;14.33;12.93;;;14.90;99.90;;;;;;6226968;28;20480;-63
2021/09/26 02:40:02;;;;;;;11.33;10.33;;;14.90;99.90;;;;;;6226303;28;20484;-63
2021/09/26 02:43:18;;;;;;;10.83;9.93;;;14.80;99.90;;;;;;6226011;28;20486;-63
2021/09/26 02:46:25;;;;;;;12.50;10.97;;;14.70;99.90;;;;;;6225985;28;20472;-63
2021/09/26 02:49:30;;;;;;;10.90;10.00;;;14.80;99.90;;;;;;6225769;28;20472;-63
2021/09/26 02:52:34;;;;;;;10.90;9.90;;;14.90;99.90;;;;;;6214511;28;20488;-62
2021/09/26 02:55:39;;;;;;;10.97;10.07;;;14.90;99.90;;;;;;6226270;28;20480;-62
2021/09/26 02:58:42;;;;;;;12.03;10.93;;;14.90;99.90;;;;;;6226703;28;20489;-63
2021/09/26 03:01:50;;;;;;;11.23;10.23;;;14.90;99.90;;;;;;6226664;28;20479;-63
2021/09/26 03:04:55;;;;;;;11.27;10.27;;;14.90;99.90;;;;;;6226293;28;20476;-63
2021/09/26 03:07:58;;;;;;;10.60;9.60;;;14.90;99.90;;;;;;6226412;28;20479;-63
2021/09/26 03:11:03;;;;;;;10.23;9.43;;;14.90;99.90;;;;;;6225807;28;20476;-61
2021/09/26 03:14:06;;;;;;;10.70;9.90;;;14.80;99.90;;;;;;6225791;28;21006;-62
2021/09/26 03:17:09;;;;;;;11.90;10.80;;;14.80;99.90;;;;;;6225667;28;20753;-62
2021/09/26 03:20:14;;;;;;;12.23;11.20;;;14.70;99.90;;;;;;6225753;28;20914;-63
2021/09/26 03:23:17;;;;;;;11.23;10.20;;;14.70;99.90;;;;;;6226079;28;20467;-63
2021/09/26 03:26:21;;;;;;;10.57;9.63;;;14.70;99.90;;;;;;6225999;28;20454;-62
2021/09/26 03:29:24;;;;;;;11.70;10.60;;;14.60;99.90;;;;;;6225594;28;20487;-62
2021/09/26 03:32:28;;;;;;;11.40;10.40;;;14.60;99.90;;;;;;6225703;28;20812;-64
2021/09/26 03:35:35;;;;;;;12.03;10.93;;;14.60;99.90;;;;;;6226052;28;20464;-64
2021/09/26 03:38:39;;;;;;;12.13;11.03;;;14.60;99.90;;;;;;6224835;28;20798;-66
2021/09/26 03:41:44;;;;;;;11.13;9.93;;;14.60;99.90;;;;;;6211970;28;20491;-65
2021/09/26 03:44:47;;;;;;;10.37;9.47;;;14.60;99.90;;;;;;6200942;28;20806;-65
2021/09/26 03:47:51;;;;;;;10.03;8.83;;;14.60;99.90;;;;;;6201444;28;20552;-61
2021/09/26 03:50:55;;;;;;;11.37;10.27;;;14.50;99.90;;;;;;6201061;28;20487;-61
2021/09/26 03:53:59;;;;;;;11.60;10.60;;;14.40;99.90;;;;;;6200956;28;20484;-62
2021/09/26 03:57:03;;;;;;;10.07;9.27;;;14.30;99.90;;;;;;6196278;28;20484;-62
2021/09/26 04:00:08;;;;;;;10.23;9.23;;;14.30;99.90;;;;;;6201166;28;20488;-62
2021/09/26 04:03:12;;;;;;;10.40;9.50;;;14.30;99.90;;;;;;6205737;28;20472;-62
2021/09/26 04:06:16;;;;;;;10.17;9.27;;;14.30;99.90;;;;;;6205709;28;20472;-62
2021/09/26 04:09:19;;;;;;;10.27;9.37;;;14.30;99.90;;;;;;6205275;28;20961;-62
2021/09/26 04:12:22;;;;;;;10.00;9.10;;;14.30;99.90;;;;;;6205485;28;20502;-62
2021/09/26 04:15:25;;;;;;;9.83;9.03;;;14.30;99.90;;;;;;6205662;28;20479;-62
2021/09/26 04:18:29;;;;;;;10.53;9.67;;;14.30;99.90;;;;;;6205638;28;20476;-62
2021/09/26 04:21:33;;;;;;;10.93;9.93;;;14.30;99.90;;;;;;6206299;28;20476;-62
2021/09/26 04:24:36;;;;;;;10.30;9.40;;;14.30;99.90;;;;;;6205441;28;20972;-62
2021/09/26 04:27:40;;;;;;;11.10;10.10;;;14.30;99.90;;;;;;6205196;28;20483;-62
2021/09/26 04:30:43;;;;;;;12.47;11.20;;;14.30;99.90;;;;;;6205618;28;20473;-62
2021/09/26 04:33:46;;;;;;;11.80;10.73;;;14.30;99.90;;;;;;6205907;28;20468;-62
2021/09/26 04:36:51;;;;;;;12.03;10.93;;;14.20;99.90;;;;;;6205082;28;20472;-62
2021/09/26 04:39:54;;;;;;;12.57;11.50;;;14.20;99.90;;;;;;6204913;28;20476;-61
2021/09/26 04:42:57;;;;;;;11.20;10.20;;;14.20;99.90;;;;;;6204747;28;20492;-61
2021/09/26 04:46:04;;;;;;;18.70;10.30;;;14.30;99.90;;;;;;6204744;28;20882;-63
2021/09/26 04:49:08;;;;;;;10.97;10.07;;;14.20;99.90;;;;;;6204761;28;20564;-62
2021/09/26 04:52:12;;;;;;;10.60;9.73;;;14.20;99.90;;;;;;6204446;28;20483;-62
2021/09/26 04:55:15;;;;;;;17.03;9.97;;;14.20;99.90;;;;;;6204076;28;20472;-62
2021/09/26 04:58:18;;;;;;;10.43;9.50;;;14.10;99.90;;;;;;6204209;28;20832;-62
2021/09/26 05:01:22;;;;;;;10.43;9.57;;;14.10;99.90;;;;;;6195688;28;20480;-62
2021/09/26 05:04:27;;;;;;;10.53;9.53;;;14.10;99.90;;;;;;6204157;28;20862;-62
2021/09/26 05:07:31;;;;;;;10.63;9.57;;;14.20;99.90;;;;;;6204223;28;20480;-62
2021/09/26 05:10:34;;;;;;;9.97;9.17;;;14.20;99.90;;;;;;6203843;28;21015;-62
2021/09/26 05:13:37;;;;;;;10.10;8.83;;;14.20;99.90;;;;;;6202850;28;20796;-63
2021/09/26 05:16:40;;;;;;;10.30;9.33;;;14.20;99.90;;;;;;6203698;28;20485;-62
2021/09/26 05:19:46;;;;;;;9.63;8.90;;;14.20;99.90;;;;;;6204147;28;20979;-63
2021/09/26 05:22:52;;;;;;;10.97;10.07;;;14.10;99.90;;;;;;6203799;28;20473;-62
2021/09/26 05:25:56;;;;;;;9.43;8.47;;;14.10;99.90;;;;;;6203823;28;20481;-62
2021/09/26 05:29:01;;;;;;;11.37;10.40;;;14.10;99.90;;;;;;6204254;28;20486;-62
2021/09/26 05:32:05;;;;;;;11.60;9.33;;;14.20;99.90;;;;;;6204100;28;20489;-62
2021/09/26 05:35:09;;;;;;;10.37;9.33;;;14.20;99.90;;;;;;6203489;28;20477;-62
2021/09/26 05:38:13;;;;;;;9.60;8.70;;;14.30;99.90;;;;;;6203335;28;20461;-63
2021/09/26 05:41:17;;;;;;;10.30;9.33;;;14.40;99.90;;;;;;6203249;28;20476;-62
2021/09/26 05:44:20;;;;;;;10.33;9.37;;;14.50;99.90;;;;;;6204007;28;20455;-62
2021/09/26 05:47:23;;;;;;;10.73;8.90;;;14.50;99.90;;;;;;6203118;28;20448;-62
2021/09/26 05:50:26;;;;;;;10.47;9.47;;;14.60;99.90;;;;;;6203055;28;20543;-63
2021/09/26 05:53:31;;;;;;;9.90;9.10;;;14.70;99.90;;;;;;6203278;28;20816;-62
2021/09/26 05:56:34;;;;;;;10.13;9.13;;;14.80;99.90;;;;;;6202817;28;20465;-62
2021/09/26 05:59:38;;;;;;;10.73;9.70;;;14.70;99.90;;;;;;6203340;28;20460;-62
2021/09/26 06:02:42;;;;;;;9.73;8.83;;;14.80;99.90;;;;;;6198515;28;20800;-62
2021/09/26 06:05:45;;;;;;;9.83;8.93;;;14.70;99.90;;;;;;6203354;28;20500;-63
2021/09/26 06:08:51;;;;;;;9.80;8.90;;;14.70;99.90;;;;;;6202741;28;20487;-62
2021/09/26 06:11:54;;;;;;;15.93;11.00;;;14.80;99.90;;;;;;6202938;28;20469;-63
2021/09/26 06:14:57;;;;;;;9.27;8.47;;;14.90;99.90;;;;;;6202801;28;20484;-62
2021/09/26 06:18:01;;;;;;;10.50;9.40;;;14.90;99.90;;;;;;6202238;28;20472;-62
2021/09/26 06:21:04;;;;;;;10.00;9.00;;;15.00;99.90;;;;;;6201865;28;20468;-62
2021/09/26 06:24:08;;;;;;;11.67;8.77;;;15.20;99.90;;;;;;6202182;28;20472;-62
2021/09/26 06:27:12;;;;;;;10.33;9.33;;;15.30;99.90;;;;;;6199669;28;20476;-62
2021/09/26 06:30:15;;;;;;;9.67;8.60;;;15.40;99.90;;;;;;6201495;28;20484;-61
2021/09/26 06:33:18;;;;;;;8.83;8.03;;;15.50;99.90;;;;;;6201710;28;20829;-61
2021/09/26 06:36:21;;;;;;;10.60;9.70;;;15.60;99.90;;;;;;6201533;28;20965;-61
2021/09/26 06:39:26;;;;;;;10.10;9.20;;;15.70;99.90;;;;;;6202234;28;20480;-61
2021/09/26 06:42:30;;;;;;;9.57;8.70;;;15.80;99.90;;;;;;6201700;28;20480;-61
2021/09/26 06:45:33;;;;;;;10.17;9.37;;;16.00;99.90;;;;;;6201946;28;20469;-62
2021/09/26 06:48:37;;;;;;;9.07;8.27;;;16.10;99.90;;;;;;6201471;28;20477;-62
2021/09/26 06:51:40;;;;;;;10.70;9.80;;;16.30;99.90;;;;;;6202035;28;20475;-62
2021/09/26 06:54:45;;;;;;;9.00;8.20;;;16.60;99.90;;;;;;6201791;28;20484;-62
2021/09/26 06:57:48;;;;;;;10.03;9.23;;;17.30;99.90;;;;;;6201684;28;20483;-62
2021/09/26 07:00:51;;;;;;;9.93;9.13;;;19.20;99.90;;;;;;6201508;28;20812;-64
2021/09/26 07:03:54;;;;;;;10.27;9.10;;;21.90;98.40;;;;;;6201999;28;20705;-63
2021/09/26 07:06:58;;;;;;;9.17;8.37;;;24.40;92.60;;;;;;6201671;28;20234;-63
2021/09/26 07:10:02;;;;;;;9.70;8.90;;;26.30;82.30;;;;;;6196853;28;20255;-63
2021/09/26 07:13:05;;;;;;;10.50;9.50;;;27.90;72.00;;;;;;6201622;28;20233;-63
2021/09/26 07:16:09;;;;;;;9.00;8.20;;;29.30;62.50;;;;;;6201479;28;20240;-62
2021/09/26 07:19:15;;;;;;;8.77;8.17;;;30.50;57.30;;;;;;6201363;28;20272;-62
2021/09/26 07:22:23;;;;;;;10.13;9.23;;;31.90;53.00;;;;;;6201613;28;20237;-62
2021/09/26 07:25:29;;;;;;;9.82;9.05;;;32.90;48.60;;;;;;6201266;28;20247;-64
2021/09/26 07:28:32;;;;;;;8.68;7.97;;;33.90;45.40;;;;;;6201438;28;20240;-62
2021/09/26 07:31:36;;;;;;;9.27;8.18;;;34.70;42.50;;;;;;6200825;28;20241;-62
2021/09/26 07:34:39;;;;;;;8.57;7.88;;;35.30;40.90;;;;;;6200962;28;20311;-63
2021/09/26 07:37:43;;;;;;;8.85;8.05;;;36.30;38.80;;;;;;6200915;28;20229;-63
2021/09/26 07:40:48;;;;;;;8.13;7.43;;;37.00;37.30;;;;;;6200520;28;20252;-64
2021/09/26 07:43:51;;;;;;;8.32;7.65;;;38.00;35.60;;;;;;6201323;28;20229;-63
2021/09/26 07:46:54;;;;;;;7.28;6.68;;;38.90;34.60;;;;;;6201042;28;20550;-64
2021/09/26 07:49:57;;;;;;;8.23;7.53;;;39.90;32.80;;;;;;6200921;28;20538;-64
2021/09/26 07:53:01;;;;;;;7.90;7.30;;;40.80;31.00;;;;;;6200851;28;20251;-65
2021/09/26 07:56:06;;;;;;;6.93;6.53;;;41.50;29.70;;;;;;6200941;28;20708;-63
2021/09/26 07:59:09;;;;;;;6.63;6.22;;;42.10;28.70;;;;;;6200088;28;20650;-64
2021/09/26 08:02:12;;;;;;;6.38;5.97;;;42.90;28.30;;;;;;6200615;28;20221;-64
2021/09/26 08:05:16;;;;;;;7.35;6.20;;;43.40;26.60;;;;;;6200927;28;20205;-63
2021/09/26 08:08:19;;;;;;;6.05;5.63;;;43.80;26.50;;;;;;6201092;28;20232;-64
2021/09/26 08:11:23;;;;;;;6.88;6.28;;;44.40;25.80;;;;;;6201030;28;20236;-65
2021/09/26 08:14:26;;;;;;;7.07;6.53;;;44.30;25.40;;;;;;6200468;28;20225;-63
2021/09/26 08:17:30;;;;;;;5.97;5.50;;;44.70;25.30;;;;;;6201214;28;20260;-63
2021/09/26 08:20:33;;;;;;;6.38;5.97;;;45.50;24.80;;;;;;6202075;28;20233;-63
2021/09/26 08:23:36;;;;;;;5.72;5.43;;;45.90;24.50;;;;;;6201229;28;20693;-63
2021/09/26 08:26:40;;;;;;;6.40;5.75;;;46.60;24.10;;;;;;6199776;28;20547;-63
2021/09/26 08:29:44;;;;;;;6.80;6.30;;;46.90;23.50;;;;;;6200797;28;20672;-64
2021/09/26 08:32:48;;;;;;;5.60;5.20;;;47.20;23.00;;;;;;6200229;28;20583;-64
2021/09/26 08:35:51;;;;;;;5.82;5.32;;;47.00;22.90;;;;;;6200196;28;20695;-64
2021/09/26 08:38:54;;;;;;;6.20;5.80;;;47.40;22.90;;;;;;6200648;28;20224;-64
2021/09/26 08:41:59;;;;;;;8.95;8.25;;;47.80;22.80;;;;;;6199228;28;20229;-64
2021/09/26 08:45:03;;;;;;;5.30;5.00;;;48.40;22.30;;;;;;6199377;28;20298;-63
2021/09/26 08:48:07;;;;;;;6.82;6.32;;;49.00;21.90;;;;;;6202214;28;20709;-63
2021/09/26 08:51:11;;;;;;;5.97;5.53;;;49.60;21.50;;;;;;6203607;28;20224;-63
2021/09/26 08:54:15;;;;;;;5.68;5.28;;;50.40;21.20;;;;;;6200671;28;20228;-64
2021/09/26 08:57:21;;;;;;;5.00;4.70;;;51.00;19.90;;;;;;6204099;28;20224;-64
2021/09/26 09:00:27;;;;;;;6.00;5.70;;;51.40;20.20;;;;;;6203458;28;20580;-66
2021/09/26 09:03:30;;;;;;;5.65;5.25;;;51.80;19.60;;;;;;6205749;28;20250;-66
2021/09/26 09:06:43;;;;;;;5.47;5.18;;;52.20;19.60;;;;;;6205529;28;20234;-66
2021/09/26 09:09:51;;;;;;;6.05;5.75;;;51.50;19.40;;;;;;6203449;28;20732;-69
2021/09/26 09:12:55;;;;;;;6.05;5.65;;;51.10;19.60;;;;;;6203831;28;20261;-65
2021/09/26 09:16:00;;;;;;;5.93;5.57;;;52.00;19.60;;;;;;6195508;28;20241;-64
2021/09/26 09:19:04;;;;;;;6.10;5.65;;;52.30;19.10;;;;;;6203660;28;20235;-65
2021/09/26 09:22:11;;;;;;;6.00;5.55;;;52.60;19.00;;;;;;6203924;28;20252;-63
2021/09/26 09:25:30;;;;;;;5.50;5.20;;;53.10;18.70;;;;;;6203549;28;20239;-66
2021/09/26 09:28:39;;;;;;;5.35;5.05;;;52.70;19.20;;;;;;6211783;28;20660;-64
2021/09/26 09:31:50;;;;;;;5.82;5.50;;;53.70;18.50;;;;;;6205478;28;20237;-66
2021/09/26 09:34:53;;;;;;;5.47;5.18;;;53.00;18.70;;;;;;6205042;28;20243;-65
2021/09/26 09:37:57;;;;;;;5.60;5.30;;;53.50;18.60;;;;;;6227687;28;20232;-63
2021/09/26 09:41:00;;;;;;;5.68;5.38;;;53.80;18.10;;;;;;6227365;28;20738;-63
2021/09/26 09:44:06;;;;;;;5.78;5.38;;;54.00;18.20;;;;;;6209532;28;20232;-66
2021/09/26 09:47:09;;;;;;;6.10;5.70;;;54.50;18.10;;;;;;6203060;28;20577;-62
2021/09/26 09:50:12;;;;;;;10.05;6.18;;;55.40;17.60;;;;;;6203133;28;20662;-65
2021/09/26 09:53:28;;;;;;;6.68;6.28;;;56.10;18.00;;;;;;6203485;28;20200;-65
2021/09/26 09:56:41;;;;;;;6.03;5.60;;;56.00;17.60;;;;;;6203187;28;20235;-67
2021/09/26 09:59:47;;;;;;;6.05;5.65;;;55.10;17.60;;;;;;6202350;28;20247;-70
2021/09/26 10:02:50;;;;;;;9.43;5.75;;;54.10;17.90;;;;;;6202973;28;20229;-67
2021/09/26 10:05:53;;;;;;;5.60;5.30;;;54.70;17.90;;;;;;6202436;28;20247;-65
2021/09/26 10:08:59;;;;;;;6.50;5.90;;;55.20;17.80;;;;;;6203561;28;20228;-66
2021/09/26 10:12:04;;;;;;;6.47;5.97;;;56.30;17.50;;;;;;6227291;28;20656;-65
2021/09/26 10:15:12;;;;;;;6.13;5.70;;;56.90;17.10;;;;;;6227056;28;20289;-66
2021/09/26 10:18:16;;;;;;;6.32;5.93;;;57.40;16.50;;;;;;6204949;28;20225;-67
2021/09/26 10:21:21;;;;;;;6.57;6.00;;;55.20;17.00;;;;;;6201553;28;20244;-65
2021/09/26 10:24:27;;;;;;;5.78;5.47;;;54.30;18.60;;;;;;6201458;28;20232;-66
2021/09/26 10:27:31;;;;;;;5.60;5.30;;;54.20;17.80;;;;;;6199567;28;20220;-66
2021/09/26 10:30:35;;;;;;;5.93;5.50;;;54.50;17.20;;;;;;6201687;28;20225;-66
2021/09/26 10:33:41;;;;;;;5.75;5.40;;;54.30;17.00;;;;;;6201419;28;20235;-67
2021/09/26 10:36:45;;;;;;;6.18;5.78;;;51.60;18.30;;;;;;6201368;28;20223;-66
2021/09/26 10:39:50;;;;;;;6.15;5.85;;;51.60;18.90;;;;;;6199806;28;20709;-65
2021/09/26 10:42:53;;;;;;;6.72;6.32;;;51.20;18.80;;;;;;6201856;28;20233;-65
2021/09/26 10:46:20;;;;;;;6.82;6.35;;;49.20;20.20;;;;;;6201456;28;20237;-64
2021/09/26 10:49:37;;;;;;;7.53;7.05;;;50.30;19.90;;;;;;6200284;28;20243;-65
2021/09/26 10:52:42;;;;;;;6.65;6.25;;;51.00;19.70;;;;;;6200382;28;20236;-65
2021/09/26 10:55:46;;;;;;;6.20;5.80;;;52.20;19.10;;;;;;6199905;28;20235;-66
2021/09/26 10:58:56;;;;;;;6.90;6.50;;;51.30;19.30;;;;;;6200070;28;20270;-66
2021/09/26 11:02:20;;;;;;;6.55;6.00;;;52.10;18.90;;;;;;6200917;28;20256;-66
2021/09/26 11:05:33;;;;;;;5.80;5.40;;;53.10;18.70;;;;;;6177161;28;20248;-65
2021/09/26 11:08:44;;;;;;;6.60;6.20;;;52.70;18.90;;;;;;6177569;28;20229;-65
2021/09/26 11:11:50;;;;;;;6.45;5.95;;;51.10;19.20;;;;;;6176298;28;20250;-66
2021/09/26 11:15:03;;;;;;;8.65;8.05;;;51.00;19.70;;;;;;6177584;28;20229;-66
2021/09/26 11:18:08;;;;;;;6.97;6.53;;;52.10;19.00;;;;;;6177296;28;20232;-65
2021/09/26 11:22:01;;;;;;;7.75;7.15;;;51.60;19.10;;;;;;6176803;28;20342;-65
2021/09/26 11:25:05;;;;;;;6.28;5.88;;;52.40;18.90;;;;;;6177061;28;20236;-65
2021/09/26 11:28:23;;;;;;;6.30;5.70;;;52.70;18.60;;;;;;6177625;28;20240;-65
2021/09/26 11:31:40;;;;;;;5.95;5.55;;;52.60;18.40;;;;;;6176535;28;20229;-65
2021/09/26 11:34:47;;;;;;;5.07;4.78;;;52.50;18.30;;;;;;6176408;28;20721;-65
2021/09/26 11:38:12;;;;;;;6.50;5.97;;;52.00;18.50;;;;;;6176978;28;20233;-64
2021/09/26 11:41:16;;;;;;;6.07;5.68;;;52.10;18.50;;;;;;6185512;28;20247;-64
2021/09/26 11:44:19;;;;;;;5.30;5.00;;;52.30;18.40;;;;;;6201373;28;20613;-65
2021/09/26 11:47:22;;;;;;;5.80;5.40;;;51.80;18.70;;;;;;6200700;28;20211;-65
2021/09/26 11:50:30;;;;;;;5.65;5.35;;;52.30;18.40;;;;;;6200735;28;20238;-66
2021/09/26 11:53:34;;;;;;;6.13;5.72;;;51.60;18.60;;;;;;6200493;28;20240;-65
2021/09/26 11:56:39;;;;;;;5.18;4.88;;;49.40;19.10;;;;;;6201482;28;20252;-64
2021/09/26 11:59:43;;;;;;;6.18;5.57;;;48.10;20.30;;;;;;6200997;28;20239;-64
2021/09/26 12:02:47;;;;;;;6.05;5.55;;;47.60;20.70;;;;;;6207272;28;20572;-66
2021/09/26 12:05:52;;;;;;;6.47;6.07;;;48.70;20.50;;;;;;6224857;28;20250;-65
2021/09/26 12:08:55;;;;;;;6.35;5.82;;;48.70;20.30;;;;;;6226311;28;20228;-65
2021/09/26 12:11:59;;;;;;;7.35;5.70;;;49.00;20.70;;;;;;6249054;28;20671;-64
2021/09/26 12:15:04;;;;;;;6.72;5.93;;;50.20;19.60;;;;;;6243376;28;20231;-65
2021/09/26 12:18:08;;;;;;;5.75;5.28;;;50.40;19.10;;;;;;6225493;28;20303;-65
2021/09/26 12:21:12;;;;;;;5.60;5.30;;;49.20;19.80;;;;;;6224716;28;20238;-65
2021/09/26 12:24:17;;;;;;;6.65;6.25;;;49.50;19.90;;;;;;6229867;28;20236;-65
2021/09/26 12:27:28;;;;;;;6.03;5.70;;;50.80;19.40;;;;;;6229135;28;20588;-64
2021/09/26 12:30:44;;;;;;;6.18;5.88;;;51.60;19.00;;;;;;6229258;28;20765;-63
2021/09/26 12:33:47;;;;;;;5.72;5.22;;;51.40;18.50;;;;;;6228986;28;20228;-64
2021/09/26 12:36:50;;;;;;;6.13;5.70;;;50.90;19.00;;;;;;6229249;28;20700;-65
2021/09/26 12:39:58;;;;;;;6.15;5.75;;;51.00;19.50;;;;;;6226964;28;20239;-66
2021/09/26 12:43:04;;;;;;;6.22;5.75;;;48.10;20.50;;;;;;6228450;28;20240;-64
2021/09/26 12:46:09;;;;;;;5.60;5.22;;;49.10;20.00;;;;;;6229269;28;20239;-64
2021/09/26 12:49:15;;;;;;;6.30;5.97;;;48.70;19.30;;;;;;6229325;28;20235;-64
2021/09/26 12:52:21;;;;;;;7.00;6.40;;;49.20;20.10;;;;;;6228937;28;20228;-64
2021/09/26 12:55:29;;;;;;;5.95;5.55;;;49.40;20.30;;;;;;6228655;28;20267;-65
2021/09/26 12:58:40;;;;;;;5.93;5.60;;;50.20;19.80;;;;;;6228996;28;20231;-64
2021/09/26 13:01:44;;;;;;;5.82;5.30;;;49.40;19.30;;;;;;6228281;28;20247;-65
2021/09/26 13:04:59;;;;;;;6.32;5.82;;;49.40;19.40;;;;;;6228055;28;20246;-63
2021/09/26 13:08:08;;;;;;;6.45;6.05;;;48.40;20.30;;;;;;6228623;28;20239;-64
2021/09/26 13:11:28;;;;;;;6.15;5.80;;;47.90;20.70;;;;;;6247691;28;20242;-64
2021/09/26 13:14:35;;;;;;;7.30;6.80;;;48.50;20.50;;;;;;6236379;28;20238;-64
2021/09/26 13:17:39;;;;;;;6.43;5.95;;;48.00;20.80;;;;;;6224649;28;20228;-64
2021/09/26 13:20:42;;;;;;;6.60;6.20;;;48.10;20.90;;;;;;6227392;28;20243;-64
2021/09/26 13:23:56;;;;;;;7.25;6.82;;;47.00;21.50;;;;;;6227247;28;20264;-64
2021/09/26 13:27:18;;;;;;;7.78;7.28;;;44.20;23.40;;;;;;6226040;28;20230;-63
2021/09/26 13:30:29;;;;;;;9.38;6.85;;;41.60;25.60;;;;;;6225151;28;20665;-63
2021/09/26 13:33:35;;;;;;;8.02;7.43;;;39.80;27.90;;;;;;6226839;28;20696;-63
2021/09/26 13:36:41;;;;;;;7.22;6.82;;;38.30;28.70;;;;;;6226888;28;20266;-63
2021/09/26 13:39:47;;;;;;;7.38;6.88;;;36.80;30.00;;;;;;6226419;28;20236;-63
2021/09/26 13:42:56;;;;;;;7.80;7.30;;;35.40;31.90;;;;;;6202586;28;20247;-63
2021/09/26 13:46:01;;;;;;;7.28;6.68;;;33.70;34.60;;;;;;6202059;28;20240;-63
2021/09/26 13:49:04;;;;;;;7.88;7.28;;;32.20;37.80;;;;;;6202094;28;20696;-63
2021/09/26 13:52:10;;;;;;;7.80;7.20;;;31.20;39.00;;;;;;6202834;28;20244;-63
2021/09/26 13:55:14;;;;;;;7.63;7.13;;;30.50;40.00;;;;;;6202365;28;20249;-64
2021/09/26 13:58:19;;;;;;;8.07;7.30;;;30.10;40.90;;;;;;6202252;28;20232;-63
2021/09/26 14:01:22;;;;;;;7.27;6.67;;;29.70;41.90;;;;;;6201565;28;20251;-63
2021/09/26 14:04:25;;;;;;;7.57;6.97;;;29.50;42.40;;;;;;6220670;28;20263;-63
2021/09/26 14:07:29;;;;;;;7.10;6.50;;;29.30;43.10;;;;;;6226007;28;20239;-63
2021/09/26 14:10:32;;;;;;;7.73;7.13;;;29.10;43.20;;;;;;6241343;28;20235;-63
2021/09/26 14:13:37;;;;;;;8.40;7.60;;;29.00;43.40;;;;;;6251066;28;20238;-62
2021/09/26 14:16:40;;;;;;;8.63;7.07;;;28.80;43.90;;;;;;6251475;28;20292;-63
2021/09/26 14:19:43;;;;;;;7.67;7.10;;;28.70;44.20;;;;;;6251195;28;20227;-64
2021/09/26 14:22:47;;;;;;;7.93;7.33;;;28.60;44.70;;;;;;6251967;28;20231;-63
2021/09/26 14:25:50;;;;;;;7.83;7.33;;;28.50;44.90;;;;;;6251183;28;20688;-63
2021/09/26 14:28:55;;;;;;;9.07;8.20;;;28.20;45.60;;;;;;6251059;28;20235;-63
2021/09/26 14:31:58;;;;;;;7.80;7.17;;;27.80;47.40;;;;;;6250895;28;20239;-63
2021/09/26 14:35:02;;;;;;;7.80;7.00;;;27.50;48.30;;;;;;6252037;28;20227;-63
2021/09/26 14:38:06;;;;;;;8.80;8.10;;;27.30;49.10;;;;;;6241548;28;20235;-63
2021/09/26 14:41:16;;;;;;;9.10;8.40;;;27.00;50.30;;;;;;6239203;28;20699;-63
2021/09/26 14:44:20;;;;;;;9.10;8.17;;;26.90;50.90;;;;;;6226558;28;20231;-63
2021/09/26 14:47:27;;;;;;;9.50;8.70;;;26.90;51.50;;;;;;6225835;28;20188;-63
2021/09/26 14:50:34;;;;;;;8.53;7.87;;;26.90;52.20;;;;;;6226228;28;20228;-63
2021/09/26 14:53:37;;;;;;;10.97;9.83;;;26.90;52.40;;;;;;6226017;28;20235;-63
2021/09/26 14:56:41;;;;;;;9.23;8.47;;;26.90;52.80;;;;;;6225412;28;20224;-66
2021/09/26 14:59:45;;;;;;;10.63;9.67;;;26.70;53.30;;;;;;6225900;28;20228;-64
2021/09/26 15:02:49;;;;;;;11.43;8.30;;;26.40;54.10;;;;;;6225188;28;20603;-61
2021/09/26 15:05:52;;;;;;;9.97;9.07;;;26.20;55.10;;;;;;6224957;28;20223;-64
2021/09/26 15:08:56;;;;;;;9.30;8.60;;;26.20;55.60;;;;;;6225465;28;20613;-63
2021/09/26 15:11:59;;;;;;;9.73;9.03;;;26.20;55.90;;;;;;6224575;28;20238;-66
2021/09/26 15:15:05;;;;;;;9.00;8.30;;;26.10;56.20;;;;;;6224774;28;20236;-66
2021/09/26 15:18:08;;;;;;;9.60;8.73;;;26.10;56.40;;;;;;6225505;28;20236;-64
2021/09/26 15:21:12;;;;;;;9.67;8.97;;;26.00;56.40;;;;;;6225414;28;20668;-63
2021/09/26 15:24:15;;;;;;;10.90;10.13;;;25.90;57.00;;;;;;6224711;28;20224;-64
2021/09/26 15:27:18;;;;;;;9.50;8.70;;;25.90;57.80;;;;;;6224879;28;20224;-64
2021/09/26 15:30:23;;;;;;;9.60;8.80;;;25.90;58.00;;;;;;6225524;28;20224;-64
2021/09/26 15:33:26;;;;;;;10.00;9.30;;;25.90;57.80;;;;;;6225251;28;20224;-66
2021/09/26 15:36:30;;;;;;;9.03;8.33;;;25.90;57.50;;;;;;6224479;28;20547;-65
2021/09/26 15:39:35;;;;;;;8.87;8.07;;;25.90;57.60;;;;;;6220840;28;20240;-64
2021/09/26 15:42:38;;;;;;;9.07;8.33;;;25.80;57.70;;;;;;6225259;28;20680;-63
2021/09/26 15:45:47;;;;;;;9.03;8.27;;;25.60;57.90;;;;;;6225633;28;20232;-64
2021/09/26 15:48:50;;;;;;;9.80;9.10;;;25.60;58.40;;;;;;6226006;28;20236;-64
2021/09/26 15:51:54;;;;;;;9.40;8.70;;;25.60;58.30;;;;;;6229598;28;20235;-64
2021/09/26 15:54:57;;;;;;;9.87;9.07;;;25.40;58.70;;;;;;6226990;28;20251;-64
2021/09/26 15:58:01;;;;;;;9.00;8.20;;;25.30;59.20;;;;;;6228739;28;20242;-63